Report METAR

LIPF - Ferrara (aut), Italy
Distance from station: SSO 23km
Dati ricevuti: 19/09/2018 12:55
Mist, Parz. nuvoloso
Mist, Parz. nuvoloso
 Vento da ONO
Vento: ONO 4 km/h
Temperatura: 27°C
Indice di Calore: 29°C
P.to Rugiada: 21°C
Umidità: 70%
Barometro: 1020 hPa
Summary: Mist
Nuvole: Parz. nuvoloso
Visibility: 5 km
Cloud details: Parz. nuvoloso 762 m
2018/09/19 10:55 LIPF 191055Z 30002KT 5000 BR SCT025 27/21 Q1020
LIPU - Padova (civ/It-A, Italy
Distance from station: N 43km
Dati ricevuti: 19/09/2018 08:00
DATI Obsoleti
Mist, Parz. nuvoloso
Mist, Parz. nuvoloso
 Vento da Variabile
Vento: Variabile 6 km/h
Temperatura: 18°C
P.to Rugiada: 18°C
Umidità: 100%
Barometro: 1020 hPa
Summary: Mist
Nuvole: Parz. nuvoloso
Visibility: 2 km
2018/09/19 06:00 LIPU 190600Z VRB03KT 1500 BR NSC 18/18 Q1020